createdAt,value
2019-04-05T00:01:13.976Z,8.70
2019-04-05T00:06:19.804Z,8.70
2019-04-05T00:11:25.265Z,8.70
2019-04-05T00:16:30.530Z,8.70
2019-04-05T00:21:35.991Z,8.60
2019-04-05T00:26:41.374Z,8.60
2019-04-05T00:31:46.894Z,8.60
2019-04-05T00:36:52.380Z,8.60
2019-04-05T00:41:57.819Z,8.60
2019-04-05T00:47:03.181Z,8.50
2019-04-05T00:52:08.752Z,8.50
2019-04-05T00:57:14.098Z,8.50
2019-04-05T01:02:19.722Z,8.50
2019-04-05T01:07:25.345Z,8.40
2019-04-05T01:12:32.102Z,8.40
2019-04-05T01:17:38.312Z,8.40
2019-04-05T01:22:44.795Z,8.30
2019-04-05T01:27:50.886Z,8.30
2019-04-05T01:32:56.422Z,8.30
2019-04-05T01:38:02.796Z,8.30
2019-04-05T01:43:08.286Z,8.30
2019-04-05T01:48:13.852Z,8.20
2019-04-05T01:53:19.958Z,8.20
2019-04-05T01:58:26.852Z,8.20
2019-04-05T02:03:32.294Z,8.10
2019-04-05T02:08:37.987Z,8.10
2019-04-05T02:13:43.417Z,8.10
2019-04-05T02:18:48.983Z,8.10
2019-04-05T02:23:54.568Z,8.10
2019-04-05T02:29:00.500Z,8.10
2019-04-05T02:34:06.387Z,8.10
2019-04-05T02:39:12.050Z,8.00
2019-04-05T02:44:18.062Z,8.00
2019-04-05T02:49:25.986Z,7.90
2019-04-05T02:54:32.398Z,7.90
2019-04-05T02:59:39.205Z,7.90
2019-04-05T03:04:45.110Z,7.90
2019-04-05T03:09:51.363Z,7.90
2019-04-05T03:14:57.783Z,7.90
2019-04-05T03:20:04.205Z,7.90
2019-04-05T03:25:09.950Z,7.90
2019-04-05T03:30:15.686Z,7.90
2019-04-05T03:35:21.744Z,7.90
2019-04-05T03:40:27.664Z,7.80
2019-04-05T03:45:33.215Z,7.80
2019-04-05T03:50:39.100Z,7.80
2019-04-05T03:55:45.048Z,7.80
2019-04-05T04:00:50.826Z,7.80
2019-04-05T04:05:56.509Z,7.80
2019-04-05T04:11:02.132Z,7.70
2019-04-05T04:16:08.409Z,7.70
2019-04-05T04:21:25.383Z,7.80
2019-04-05T04:26:31.650Z,7.70
2019-04-05T04:31:37.440Z,7.70
2019-04-05T04:36:43.084Z,7.70
2019-04-05T04:41:48.863Z,7.70
2019-04-05T04:46:54.547Z,7.60
2019-04-05T04:52:00.190Z,7.50
2019-04-05T04:57:06.984Z,7.50
2019-04-05T05:02:12.739Z,7.50
2019-04-05T05:07:18.454Z,7.40
2019-04-05T05:12:25.089Z,7.40
2019-04-05T05:17:38.362Z,7.40
2019-04-05T05:22:38.190Z,7.40
2019-04-05T05:27:44.031Z,7.40
2019-04-05T05:32:49.732Z,7.50
2019-04-05T05:37:55.547Z,7.40
2019-04-05T05:43:01.119Z,7.50
2019-04-05T05:48:06.839Z,7.50
2019-04-05T05:53:12.700Z,7.50
2019-04-05T05:58:18.151Z,7.50
2019-04-05T06:03:23.808Z,7.60
2019-04-05T06:08:29.486Z,7.70
2019-04-05T06:13:34.899Z,7.70
2019-04-05T06:18:40.560Z,7.70
2019-04-05T06:23:46.067Z,7.70
2019-04-05T06:28:51.663Z,7.80
2019-04-05T06:33:57.240Z,7.80
2019-04-05T06:39:02.813Z,7.90
2019-04-05T06:44:08.282Z,7.90
2019-04-05T06:49:13.721Z,7.90
2019-04-05T06:54:19.418Z,8.00
2019-04-05T06:59:24.816Z,8.10
2019-04-05T07:04:31.237Z,8.10
2019-04-05T07:09:37.051Z,8.20
2019-04-05T07:14:42.751Z,8.30
2019-04-05T07:19:48.223Z,8.40
2019-04-05T07:24:53.699Z,8.40
2019-04-05T07:29:59.215Z,8.50
2019-04-05T07:35:04.616Z,8.60
2019-04-05T07:40:10.377Z,8.70
2019-04-05T07:50:20.779Z,9.00
2019-04-05T07:55:28.784Z,9.00
2019-04-05T08:00:59.611Z,9.10
2019-04-05T08:06:05.317Z,9.30
2019-04-05T08:11:11.345Z,9.30
2019-04-05T08:16:17.223Z,9.30
2019-04-05T08:21:22.673Z,9.40
2019-04-05T08:26:28.634Z,9.50
2019-04-05T08:31:34.213Z,9.50
2019-04-05T08:36:39.764Z,9.60
2019-04-05T08:41:45.143Z,9.70
2019-04-05T08:46:50.704Z,9.80
2019-04-05T08:51:56.255Z,9.90
2019-04-05T08:57:01.995Z,9.90
2019-04-05T09:02:07.500Z,10.00
2019-04-05T09:07:13.136Z,10.00
2019-04-05T09:12:18.614Z,10.10
2019-04-05T09:17:24.085Z,10.20
2019-04-05T09:22:29.782Z,10.20
2019-04-05T09:27:35.340Z,10.30
2019-04-05T09:32:40.990Z,10.50
2019-04-05T09:37:46.640Z,10.50
2019-04-05T09:42:52.191Z,10.50
2019-04-05T09:47:57.777Z,10.60
2019-04-05T09:53:03.353Z,10.70
2019-04-05T09:58:10.190Z,10.80
2019-04-05T10:03:15.804Z,10.80
2019-04-05T10:08:21.381Z,10.90
2019-04-05T10:13:26.810Z,10.90
2019-04-05T10:18:32.409Z,11.10
2019-04-05T10:23:37.879Z,11.20
2019-04-05T10:28:43.453Z,11.20
2019-04-05T10:33:48.839Z,11.30
2019-04-05T10:38:54.257Z,11.40
2019-04-05T10:43:59.720Z,11.40
2019-04-05T10:49:05.478Z,11.40
2019-04-05T10:54:11.047Z,11.40
2019-04-05T10:59:16.480Z,11.40
2019-04-05T11:04:22.182Z,11.50
2019-04-05T11:09:27.895Z,11.50
2019-04-05T11:14:33.486Z,11.60
2019-04-05T11:19:39.061Z,11.80
2019-04-05T11:24:44.535Z,12.00
2019-04-05T11:29:50.273Z,12.20
2019-04-05T11:34:56.041Z,12.30
2019-04-05T11:40:01.806Z,12.40
2019-04-05T11:45:09.249Z,12.60
2019-04-05T11:50:16.737Z,12.80
2019-04-05T11:55:22.224Z,12.90
2019-04-05T12:00:43.104Z,12.90
2019-04-05T12:05:55.295Z,12.80
2019-04-05T12:11:00.966Z,12.70
2019-04-05T12:16:07.942Z,12.70
2019-04-05T12:21:13.992Z,12.80
2019-04-05T12:26:19.693Z,13.00
2019-04-05T12:31:26.373Z,13.20
2019-04-05T12:36:32.066Z,13.10
2019-04-05T12:41:38.512Z,13.40
2019-04-05T12:46:45.860Z,13.70
2019-04-05T12:51:51.661Z,13.60
2019-04-05T12:56:58.049Z,13.40
2019-04-05T13:02:04.007Z,13.60
2019-04-05T13:07:09.576Z,13.80
2019-04-05T13:12:15.180Z,13.80
2019-04-05T13:17:20.801Z,13.90
2019-04-05T13:22:26.305Z,13.90
2019-04-05T13:27:31.768Z,14.00
2019-04-05T13:32:37.239Z,14.10
2019-04-05T13:37:42.797Z,14.00
2019-04-05T13:42:48.360Z,13.80
2019-04-05T13:47:53.923Z,13.80
2019-04-05T13:52:59.520Z,13.80
2019-04-05T13:58:05.071Z,13.70
2019-04-05T14:03:10.628Z,13.50
2019-04-05T14:08:16.168Z,13.50
2019-04-05T14:13:23.124Z,13.50
2019-04-05T14:18:28.637Z,13.40
2019-04-05T14:23:34.267Z,13.40
2019-04-05T14:28:39.789Z,13.30
2019-04-05T14:33:45.238Z,13.30
2019-04-05T14:38:51.032Z,13.20
2019-04-05T14:43:56.470Z,13.20
2019-04-05T14:49:02.069Z,13.20
2019-04-05T14:54:09.854Z,13.10
2019-04-05T14:59:14.887Z,13.00
2019-04-05T15:04:20.466Z,13.00
2019-04-05T15:09:26.047Z,13.00
2019-04-05T15:14:31.425Z,12.90
2019-04-05T15:19:37.088Z,12.90
2019-04-05T15:24:44.578Z,12.90
2019-04-05T15:29:49.977Z,12.90
2019-04-05T15:34:56.608Z,12.80
2019-04-05T15:40:02.612Z,12.70
2019-04-05T15:45:10.089Z,12.70
2019-04-05T15:50:15.806Z,12.70
2019-04-05T15:55:21.457Z,12.70
2019-04-05T16:00:45.802Z,12.70
2019-04-05T16:05:51.508Z,12.70
2019-04-05T16:10:57.265Z,12.70
2019-04-05T16:16:02.762Z,12.80
2019-04-05T16:21:08.265Z,12.70
2019-04-05T16:26:13.880Z,12.70
2019-04-05T16:31:19.183Z,12.70
2019-04-05T16:36:24.850Z,12.70
2019-04-05T16:41:30.588Z,12.70
2019-04-05T16:46:36.217Z,12.60
2019-04-05T16:51:41.851Z,12.70
2019-04-05T16:56:47.589Z,12.70
2019-04-05T17:01:53.294Z,12.60
2019-04-05T17:06:59.473Z,12.60
2019-04-05T17:12:05.178Z,12.50
2019-04-05T17:17:10.852Z,12.30
2019-04-05T17:22:16.539Z,12.20
2019-04-05T17:27:22.276Z,12.10
2019-04-05T17:32:27.722Z,12.10
2019-04-05T17:37:33.416Z,12.10
2019-04-05T17:42:38.920Z,12.00
2019-04-05T17:47:44.605Z,11.90
2019-04-05T17:52:50.268Z,12.00
2019-04-05T17:57:57.014Z,11.80
2019-04-05T18:03:02.642Z,11.80
2019-04-05T18:08:08.491Z,11.70
2019-04-05T18:13:14.215Z,11.70
2019-04-05T18:18:20.256Z,11.60
2019-04-05T18:23:26.017Z,11.50
2019-04-05T18:28:31.912Z,11.40
2019-04-05T18:33:37.614Z,11.40
2019-04-05T18:38:43.302Z,11.40
2019-04-05T18:43:48.917Z,11.30
2019-04-05T18:48:54.712Z,11.30
2019-04-05T18:54:00.489Z,11.20
2019-04-05T18:59:06.150Z,11.20
2019-04-05T19:04:11.588Z,11.10
2019-04-05T19:09:17.697Z,11.10
2019-04-05T19:14:23.350Z,11.10
2019-04-05T19:19:29.326Z,11.00
2019-04-05T19:24:34.941Z,11.10
2019-04-05T19:29:40.599Z,11.00
2019-04-05T19:50:08.560Z,10.80
2019-04-05T19:55:23.244Z,10.80
2019-04-05T20:00:32.258Z,10.70
2019-04-05T20:05:38.171Z,10.70
2019-04-05T20:10:43.734Z,10.70
2019-04-05T20:15:49.504Z,10.70
2019-04-05T20:20:55.234Z,10.60
2019-04-05T20:26:00.883Z,10.50
2019-04-05T20:31:06.461Z,10.50
2019-04-05T20:36:12.061Z,10.50
2019-04-05T20:41:17.624Z,10.40
2019-04-05T20:46:23.355Z,10.40
2019-04-05T20:51:29.109Z,10.40
2019-04-05T20:56:34.637Z,10.40
2019-04-05T21:01:40.289Z,10.40
2019-04-05T21:06:45.959Z,10.30
2019-04-05T21:11:51.505Z,10.30
2019-04-05T21:16:57.115Z,10.30
2019-04-05T21:22:02.843Z,10.30
2019-04-05T21:27:08.524Z,10.30
2019-04-05T21:32:14.068Z,10.20
2019-04-05T21:37:19.831Z,10.20
2019-04-05T21:42:25.683Z,10.20
2019-04-05T21:47:31.353Z,10.10
2019-04-05T21:52:37.038Z,10.10
2019-04-05T21:57:42.850Z,10.00
2019-04-05T22:02:48.418Z,10.00
2019-04-05T22:07:54.068Z,10.00
2019-04-05T22:13:01.002Z,10.00
2019-04-05T22:18:07.207Z,9.90
2019-04-05T22:23:12.896Z,9.90
2019-04-05T22:28:18.513Z,9.90
2019-04-05T22:33:24.193Z,9.80
2019-04-05T22:38:29.885Z,9.80
2019-04-05T22:43:35.618Z,9.80
2019-04-05T22:48:41.176Z,9.70
2019-04-05T22:53:46.902Z,9.70
2019-04-05T22:58:52.617Z,9.80
2019-04-05T23:03:58.148Z,9.80
2019-04-05T23:09:04.682Z,9.70
2019-04-05T23:14:11.065Z,9.70
2019-04-05T23:19:16.762Z,9.70
2019-04-05T23:24:22.572Z,9.60
2019-04-05T23:29:28.135Z,9.60
2019-04-05T23:34:33.900Z,9.70
2019-04-05T23:39:39.388Z,9.60
2019-04-05T23:44:45.039Z,9.60
2019-04-05T23:49:50.572Z,9.60
2019-04-05T23:54:56.322Z,9.50
